Kronborg, Nebraska
Current Conditions -  °F | °C
As of 10:55 PM on Monday 22 Dec 2014 (Local Time) from KAUH Reporting Station
Overcast Overcast  
Wind Chill: -3°   Ceiling: 2000
Heat Index:   Visibility: 10mi
Dew Point: -1°   Wind: 15mph
Humidity: 83%   Direction: 300°WNW
Pressure: 29.53"   Gusts: 22mph
Location:  41.0075°N, 98.0042°W
Report Text: KAUH 230455Z AUTO 30013G19KT 10SM BKN020 OVC025 02/00 A2953 RMK AO2 T00211005
Loading
Personal Weather Stations






























Interactive Weather Map New forecast layout! Learn more

10-Day Weather Forecast

Advertisements
Track Severe Weather on mobile